Aroostook River @ Washburn, Me

Aroostoock River at Washburn
 Total Drainage Area: 1,654 sq. miles 
 Drainage Area Controlled by Corps Dams: 0 sq. miles (0%) 
 Warning Flow/Stage: 35,300 cfs / 12.0 feet 
 Flood Flow/Stage: 50,000 cfs / 14.0 feet 
Date Time
(Eastern)
Stage
(ft)
Flow
(cfs)
CSM
(cfs / sq. mi.)
Jan-31 02:00 pm 5.50 6,857 4.2
Jan-31 01:00 pm 5.51 6,883 4.2
Jan-31 12:00 pm 5.52 6,910 4.2
Jan-31 11:00 am 5.53 6,936 4.2
Jan-31 10:00 am 5.54 6,962 4.2
Jan-31 09:00 am 5.55 6,989 4.2
Jan-31 08:00 am 5.57 7,042 4.3
Jan-31 07:00 am 5.59 7,095 4.3
Jan-31 06:00 am 5.61 7,149 4.3
Jan-31 05:00 am 5.62 7,176 4.3
Jan-31 04:00 am 5.63 7,203 4.4
Jan-31 03:00 am 5.64 7,230 4.4
Jan-31 02:00 am 5.64 7,230 4.4
Jan-31 01:00 am 5.64 7,230 4.4
Jan-31 12:00 am 5.63 7,203 4.4
Jan-30 11:00 pm 5.60 7,122 4.3
Jan-30 10:00 pm 5.56 7,015 4.2
Jan-30 09:00 pm 5.52 6,910 4.2
Jan-30 08:00 pm 5.49 6,831 4.1
Jan-30 07:00 pm 5.48 6,805 4.1
Jan-30 06:00 pm 5.47 6,779 4.1
Jan-30 05:00 pm 5.47 6,779 4.1
Jan-30 04:00 pm 5.47 6,779 4.1
Jan-30 03:00 pm 5.47 6,779 4.1
Jan-30 02:00 pm 5.48 6,805 4.1
Report Generated January 31, 2023 02:50 pm